Time;durP1;ratioP1;P1;durP2;ratioP2;P2;SDS_P1;SDS_P2;PMS_P1;PMS_P2;Temp;Humidity;BMP_temperature;BMP_pressure;BME280_temperature;BME280_humidity;BME280_pressure;Samples;Min_cycle;Max_cycle;Signal;HPM_P1;HPM_P2
2023/12/28 00:00:54;;;;;;;9.53;3.60;;;;;3.30;97204.00;;;;5083311;28;20462;-86
2023/12/28 00:03:43;;;;;;;13.57;4.70;;;;;3.60;97200.00;;;;5077744;28;20434;-85
2023/12/28 00:06:32;;;;;;;6.53;2.40;;;;;3.50;97199.00;;;;5077946;28;20584;-87
2023/12/28 00:09:22;;;;;;;7.07;2.57;;;;;3.60;97191.00;;;;5084001;28;20422;-85
2023/12/28 00:12:11;;;;;;;13.37;4.60;;;;;3.00;97188.00;;;;5075112;28;20427;-86
2023/12/28 00:15:02;;;;;;;6.90;2.53;;;;;3.20;97192.00;;;;5080410;28;20668;-85
2023/12/28 00:17:51;;;;;;;11.30;3.93;;;;;3.80;97186.00;;;;5085837;28;20462;-85
2023/12/28 00:20:40;;;;;;;17.90;5.90;;;;;4.20;97203.00;;;;5084141;28;20426;-85
2023/12/28 00:23:30;;;;;;;10.23;3.37;;;;;4.50;97207.00;;;;5082114;28;20434;-84
2023/12/28 00:26:21;;;;;;;6.10;2.17;;;;;4.60;97212.00;;;;5082019;28;20527;-85
2023/12/28 00:29:10;;;;;;;8.00;2.70;;;;;4.40;97209.00;;;;5081236;28;20430;-86
2023/12/28 00:32:01;;;;;;;7.97;2.77;;;;;4.10;97212.00;;;;5084177;28;20204;-86
2023/12/28 00:34:50;;;;;;;14.60;4.83;;;;;3.10;97203.00;;;;5083681;28;20437;-84
2023/12/28 00:37:39;;;;;;;10.17;3.37;;;;;3.20;97187.00;;;;5076206;28;20844;-85
2023/12/28 00:40:29;;;;;;;12.20;4.07;;;;;2.90;97183.00;;;;5080077;28;20434;-85
2023/12/28 00:43:18;;;;;;;9.07;3.20;;;;;3.50;97184.00;;;;5086009;28;20433;-85
2023/12/28 00:46:07;;;;;;;8.83;2.90;;;;;3.60;97193.00;;;;5080859;28;20848;-84
2023/12/28 00:48:58;;;;;;;5.97;2.20;;;;;3.60;97199.00;;;;5087046;28;20438;-86
2023/12/28 00:51:47;;;;;;;14.30;4.83;;;;;3.50;97196.00;;;;5081476;28;20481;-84
2023/12/28 00:54:36;;;;;;;7.77;2.80;;;;;3.20;97202.00;;;;5078633;28;20427;-86
2023/12/28 00:57:26;;;;;;;10.60;3.57;;;;;3.90;97211.00;;;;5081091;28;20474;-84
2023/12/28 01:00:15;;;;;;;7.13;2.53;;;;;4.10;97194.00;;;;5093528;28;20423;-85
2023/12/28 01:03:05;;;;;;;6.07;2.17;;;;;4.00;97206.00;;;;5084713;28;20430;-85
2023/12/28 01:05:55;;;;;;;13.30;4.53;;;;;3.80;97204.00;;;;5086138;28;20450;-84
2023/12/28 01:08:45;;;;;;;11.00;3.73;;;;;3.60;97204.00;;;;5085156;28;21000;-83
2023/12/28 01:11:34;;;;;;;7.47;2.67;;;;;3.50;97188.00;;;;5077037;28;20423;-86
2023/12/28 01:14:23;;;;;;;7.57;2.70;;;;;2.90;97199.00;;;;5085256;28;20440;-84
2023/12/28 01:17:12;;;;;;;8.67;3.00;;;;;3.80;97213.00;;;;5085840;28;20438;-84
2023/12/28 01:20:02;;;;;;;5.60;1.93;;;;;4.40;97215.00;;;;5083543;28;20450;-84
2023/12/28 01:22:52;;;;;;;12.93;4.20;;;;;4.40;97212.00;;;;5085924;28;20527;-85
2023/12/28 01:25:42;;;;;;;16.07;5.17;;;;;4.00;97199.00;;;;5086375;28;20447;-85
2023/12/28 01:28:31;;;;;;;7.97;2.73;;;;;3.40;97193.00;;;;5072464;28;20427;-84
2023/12/28 01:31:20;;;;;;;6.40;2.37;;;;;3.90;97195.00;;;;5071393;28;20422;-81
2023/12/28 01:34:09;;;;;;;9.80;3.13;;;;;4.10;97196.00;;;;5082465;28;20452;-85
2023/12/28 01:36:59;;;;;;;8.17;2.83;;;;;4.20;97192.00;;;;5078652;28;20455;-85
2023/12/28 01:39:49;;;;;;;15.57;4.97;;;;;3.60;97188.00;;;;5082136;28;20426;-84
2023/12/28 01:42:40;;;;;;;11.87;3.90;;;;;3.50;97191.00;;;;5084837;28;20410;-85
2023/12/28 01:45:29;;;;;;;8.30;2.77;;;;;4.00;97204.00;;;;5073415;28;20429;-85
2023/12/28 01:48:19;;;;;;;7.80;2.73;;;;;3.90;97201.00;;;;5073027;28;20429;-88
2023/12/28 01:51:08;;;;;;;8.87;3.00;;;;;3.50;97192.00;;;;5070465;28;20446;-89
2023/12/28 01:53:57;;;;;;;8.70;2.90;;;;;4.10;97197.00;;;;5072553;28;20444;-88
2023/12/28 01:56:48;;;;;;;14.40;4.57;;;;;4.00;97184.00;;;;5071162;28;20459;-88
2023/12/28 01:59:37;;;;;;;7.47;2.50;;;;;3.90;97179.00;;;;5072917;28;20477;-87
2023/12/28 02:02:27;;;;;;;11.00;3.47;;;;;3.30;97166.00;;;;5075355;28;20208;-87
2023/12/28 02:05:16;;;;;;;9.83;3.20;;;;;2.70;97177.00;;;;5076090;28;20459;-87
2023/12/28 02:08:06;;;;;;;9.47;3.20;;;;;3.10;97183.00;;;;5073041;28;20824;-87
2023/12/28 02:10:56;;;;;;;14.57;4.77;;;;;3.10;97172.00;;;;5078101;28;20437;-87
2023/12/28 02:13:47;;;;;;;14.33;4.50;;;;;3.00;97159.00;;;;5074556;28;20434;-85
2023/12/28 02:16:42;;;;;;;7.53;2.60;;;;;3.50;97161.00;;;;5072053;28;20447;-87
2023/12/28 02:19:41;;;;;;;7.33;2.53;;;;;3.60;97153.00;;;;5070742;28;20474;-87
2023/12/28 02:22:31;;;;;;;10.33;3.43;;;;;4.00;97155.00;;;;5069116;28;20438;-86
2023/12/28 02:25:21;;;;;;;8.83;2.97;;;;;4.00;97149.00;;;;5078404;28;20419;-86
2023/12/28 02:28:11;;;;;;;10.03;3.23;;;;;4.00;97138.00;;;;5076308;28;20423;-86
2023/12/28 02:31:01;;;;;;;5.87;2.03;;;;;2.90;97130.00;;;;5078428;28;20427;-84
2023/12/28 02:33:55;;;;;;;16.90;5.10;;;;;2.90;97132.00;;;;5077100;28;20430;-87
2023/12/28 02:36:45;;;;;;;12.83;4.13;;;;;3.20;97125.00;;;;5077736;28;20449;-86
2023/12/28 02:39:35;;;;;;;9.07;2.83;;;;;3.60;97133.00;;;;5075324;28;20466;-86
2023/12/28 02:42:26;;;;;;;9.23;3.03;;;;;3.40;97132.00;;;;5068477;28;20967;-86
2023/12/28 02:45:15;;;;;;;9.43;3.10;;;;;2.90;97122.00;;;;5073068;28;20433;-84
2023/12/28 02:48:05;;;;;;;7.53;2.57;;;;;2.90;97130.00;;;;5078787;28;20423;-86
2023/12/28 02:50:54;;;;;;;11.03;3.60;;;;;3.20;97136.00;;;;5077354;28;20441;-85
2023/12/28 02:53:43;;;;;;;12.37;3.83;;;;;3.60;97126.00;;;;5074917;28;20822;-87
2023/12/28 02:56:32;;;;;;;9.17;3.00;;;;;3.60;97118.00;;;;5077564;28;20469;-85
2023/12/28 02:59:24;;;;;;;8.93;2.97;;;;;2.30;97107.00;;;;5080088;28;20469;-85
2023/12/28 03:02:14;;;;;;;8.20;2.87;;;;;2.20;97113.00;;;;5080228;28;20464;-85
2023/12/28 03:05:03;;;;;;;10.40;3.47;;;;;3.10;97114.00;;;;5079141;28;20794;-86
2023/12/28 03:07:55;;;;;;;13.37;4.53;;;;;3.70;97117.00;;;;5072788;28;20429;-87
2023/12/28 03:10:44;;;;;;;14.17;4.53;;;;;3.60;97115.00;;;;5074329;28;20675;-86
2023/12/28 03:13:33;;;;;;;8.17;2.83;;;;;2.60;97105.00;;;;5070944;28;20437;-86
2023/12/28 03:16:24;;;;;;;5.00;1.90;;;;;2.50;97104.00;;;;5080871;27;20435;-87
2023/12/28 03:19:13;;;;;;;6.57;2.40;;;;;3.00;97097.00;;;;5084057;28;20474;-84
2023/12/28 03:22:03;;;;;;;5.17;2.03;;;;;3.60;97098.00;;;;5077741;28;20423;-86
2023/12/28 03:24:52;;;;;;;13.40;4.50;;;;;3.80;97107.00;;;;5077517;28;20435;-86
2023/12/28 03:27:41;;;;;;;11.73;3.90;;;;;3.50;97112.00;;;;5074687;28;20485;-87
2023/12/28 03:30:30;;;;;;;12.47;3.97;;;;;2.70;97096.00;;;;5078185;28;20790;-86
2023/12/28 03:33:21;;;;;;;7.60;2.63;;;;;2.10;97090.00;;;;5076474;28;20496;-87
2023/12/28 03:36:19;;;;;;;8.93;3.10;;;;;2.70;97091.00;;;;5080966;28;20449;-87
2023/12/28 03:39:09;;;;;;;7.83;2.77;;;;;3.20;97096.00;;;;5078869;28;20462;-86
2023/12/28 03:41:58;;;;;;;7.17;2.57;;;;;3.70;97081.00;;;;5080331;28;20434;-86
2023/12/28 03:44:47;;;;;;;14.83;4.80;;;;;3.60;97087.00;;;;5078118;28;20430;-84
2023/12/28 03:47:38;;;;;;;13.83;4.47;;;;;3.50;97084.00;;;;5076071;28;20469;-86
2023/12/28 03:50:28;;;;;;;9.63;3.23;;;;;3.30;97088.00;;;;5075374;28;20431;-85
2023/12/28 03:53:17;;;;;;;9.07;3.00;;;;;2.40;97067.00;;;;5080634;28;20434;-87
2023/12/28 03:56:07;;;;;;;8.87;2.80;;;;;2.60;97061.00;;;;5076598;28;20460;-85
2023/12/28 03:58:56;;;;;;;10.67;3.57;;;;;3.20;97086.00;;;;5076859;28;20470;-84
2023/12/28 04:01:46;;;;;;;14.73;4.73;;;;;3.10;97084.00;;;;5079154;28;20434;-84
2023/12/28 04:04:35;;;;;;;6.53;2.20;;;;;3.20;97086.00;;;;5084647;28;20431;-87
2023/12/28 04:07:25;;;;;;;10.70;3.50;;;;;3.10;97072.00;;;;5077736;28;20455;-87
2023/12/28 04:10:16;;;;;;;8.83;3.03;;;;;2.90;97072.00;;;;5073870;28;20430;-87
2023/12/28 04:13:06;;;;;;;7.73;2.90;;;;;2.80;97079.00;;;;5070689;28;20438;-86
2023/12/28 04:15:55;;;;;;;14.23;4.80;;;;;2.80;97086.00;;;;5071399;28;20442;-85
2023/12/28 04:18:44;;;;;;;14.37;4.70;;;;;2.90;97073.00;;;;5073468;28;20814;-86
2023/12/28 04:21:34;;;;;;;8.60;2.90;;;;;2.70;97075.00;;;;5066674;28;20927;-87
2023/12/28 04:24:24;;;;;;;7.63;2.80;;;;;2.10;97071.00;;;;5069352;28;20426;-86
2023/12/28 04:27:13;;;;;;;5.80;2.03;;;;;2.20;97062.00;;;;5073627;28;21001;-87
2023/12/28 04:30:05;;;;;;;6.00;2.23;;;;;2.40;97063.00;;;;5073217;28;20825;-86
2023/12/28 04:32:54;;;;;;;12.27;4.23;;;;;2.60;97068.00;;;;5078777;28;20438;-86
2023/12/28 04:35:43;;;;;;;11.63;3.83;;;;;2.80;97066.00;;;;5073421;28;20434;-86
2023/12/28 04:38:33;;;;;;;5.43;2.00;;;;;3.00;97077.00;;;;5076490;28;20431;-86
2023/12/28 04:41:23;;;;;;;6.27;2.17;;;;;2.60;97067.00;;;;5077452;28;20422;-86
2023/12/28 04:44:12;;;;;;;8.03;2.87;;;;;3.00;97075.00;;;;5076238;28;20439;-84
2023/12/28 04:47:02;;;;;;;8.03;2.83;;;;;2.90;97068.00;;;;5076542;28;20446;-85
2023/12/28 04:49:51;;;;;;;14.13;4.73;;;;;2.70;97054.00;;;;5079857;28;20426;-85
2023/12/28 04:52:41;;;;;;;7.97;2.80;;;;;2.90;97063.00;;;;5078031;28;20426;-88
2023/12/28 04:55:30;;;;;;;5.43;2.10;;;;;2.40;97050.00;;;;5080174;28;20446;-86
2023/12/28 04:58:20;;;;;;;4.53;1.77;;;;;2.80;97046.00;;;;5085747;28;20432;-86
2023/12/28 05:01:10;;;;;;;8.30;2.93;;;;;2.80;97054.00;;;;5081796;28;20458;-86
2023/12/28 05:03:59;;;;;;;11.30;3.97;;;;;2.30;97045.00;;;;5079761;28;20446;-84
2023/12/28 05:06:48;;;;;;;11.17;3.80;;;;;2.10;97049.00;;;;5078827;28;20450;-87
2023/12/28 05:09:37;;;;;;;7.90;2.70;;;;;2.20;97052.00;;;;5075225;28;20423;-86
2023/12/28 05:12:27;;;;;;;10.70;3.57;;;;;2.60;97055.00;;;;5079001;28;20450;-85
2023/12/28 05:15:19;;;;;;;5.77;2.10;;;;;2.90;97050.00;;;;5080929;28;20428;-86
2023/12/28 05:18:08;;;;;;;7.83;2.90;;;;;3.10;97054.00;;;;5080958;28;20525;-85
2023/12/28 05:20:58;;;;;;;14.80;4.90;;;;;2.90;97055.00;;;;5076430;28;20458;-86
2023/12/28 05:23:47;;;;;;;14.90;4.80;;;;;2.50;97061.00;;;;5079088;28;20434;-86
2023/12/28 05:26:36;;;;;;;7.67;2.67;;;;;2.80;97066.00;;;;5076149;28;20446;-84
2023/12/28 05:29:25;;;;;;;6.57;2.30;;;;;3.20;97051.00;;;;5075716;28;20442;-86
2023/12/28 05:32:16;;;;;;;7.30;2.57;;;;;3.10;97065.00;;;;5080844;28;20418;-86
2023/12/28 05:35:06;;;;;;;8.93;2.97;;;;;3.00;97061.00;;;;5076897;28;20427;-85
2023/12/28 05:37:55;;;;;;;15.33;5.00;;;;;2.80;97057.00;;;;5079356;28;20571;-85
2023/12/28 05:40:45;;;;;;;9.17;3.10;;;;;3.00;97067.00;;;;5077632;28;20478;-87
2023/12/28 05:43:34;;;;;;;9.67;3.27;;;;;3.10;97065.00;;;;5076789;28;20423;-86
2023/12/28 05:46:23;;;;;;;9.07;3.03;;;;;3.30;97063.00;;;;5077697;28;20446;-86
2023/12/28 05:49:14;;;;;;;9.03;3.03;;;;;2.70;97063.00;;;;5077176;28;20521;-85
2023/12/28 05:52:04;;;;;;;11.10;3.47;;;;;2.90;97062.00;;;;5078957;28;20427;-85
2023/12/28 05:54:54;;;;;;;16.73;5.13;;;;;3.40;97070.00;;;;5081549;28;20493;-85
2023/12/28 05:57:44;;;;;;;12.90;3.93;;;;;3.20;97065.00;;;;5076328;28;20458;-86
2023/12/28 06:00:33;;;;;;;18.73;5.77;;;;;3.40;97067.00;;;;5071108;28;20470;-86
2023/12/28 06:03:27;;;;;;;10.83;3.53;;;;;3.20;97056.00;;;;5081563;28;20535;-84
2023/12/28 06:06:18;;;;;;;10.77;3.30;;;;;3.30;97067.00;;;;5079702;28;20470;-85
2023/12/28 06:09:08;;;;;;;11.90;3.83;;;;;2.80;97062.00;;;;5079977;28;20438;-85
2023/12/28 06:11:57;;;;;;;11.20;3.60;;;;;2.20;97056.00;;;;5079945;28;20430;-86
2023/12/28 06:14:46;;;;;;;14.60;4.43;;;;;3.10;97066.00;;;;5078991;28;20438;-87
2023/12/28 06:17:35;;;;;;;13.33;4.17;;;;;3.30;97080.00;;;;5083286;28;20447;-85
2023/12/28 06:20:25;;;;;;;7.93;2.73;;;;;3.30;97087.00;;;;5079373;28;20463;-87
2023/12/28 06:23:15;;;;;;;8.30;2.60;;;;;2.40;97069.00;;;;5086520;28;20423;-86
2023/12/28 06:26:08;;;;;;;10.73;3.47;;;;;2.90;97088.00;;;;5089838;28;20465;-87
2023/12/28 06:28:57;;;;;;;16.77;5.27;;;;;3.40;97092.00;;;;5074908;28;20415;-87
2023/12/28 06:31:46;;;;;;;17.53;5.50;;;;;3.50;97107.00;;;;5068330;28;20445;-88
2023/12/28 06:34:35;;;;;;;7.67;2.73;;;;;3.70;97099.00;;;;5070712;28;20796;-88
2023/12/28 06:37:24;;;;;;;7.93;2.80;;;;;3.40;97098.00;;;;5076326;28;20462;-88
2023/12/28 06:40:15;;;;;;;9.30;3.27;;;;;3.50;97109.00;;;;5075902;28;20461;-87
2023/12/28 06:43:05;;;;;;;8.63;3.00;;;;;3.80;97110.00;;;;5073083;28;20445;-87
2023/12/28 06:45:54;;;;;;;14.27;4.43;;;;;3.70;97105.00;;;;5072043;28;20450;-87
2023/12/28 06:48:43;;;;;;;8.87;3.00;;;;;3.70;97107.00;;;;5068450;28;20435;-86
2023/12/28 06:51:33;;;;;;;4.07;1.63;;;;;3.40;97115.00;;;;5075616;28;20422;-85
2023/12/28 06:54:22;;;;;;;8.00;2.87;;;;;4.00;97123.00;;;;5078133;28;20430;-87
2023/12/28 06:57:12;;;;;;;8.13;2.77;;;;;4.10;97128.00;;;;5075348;28;20459;-87
2023/12/28 07:00:03;;;;;;;4.33;1.80;;;;;4.20;97126.00;;;;5074327;28;20426;-86
2023/12/28 07:02:52;;;;;;;11.10;3.73;;;;;4.10;97135.00;;;;5076885;28;20979;-85
2023/12/28 07:05:41;;;;;;;5.57;2.03;;;;;4.10;97127.00;;;;5073211;28;20434;-87
2023/12/28 07:08:30;;;;;;;13.80;4.33;;;;;4.40;97129.00;;;;5067475;28;20508;-86
2023/12/28 07:11:21;;;;;;;16.43;5.20;;;;;3.80;97121.00;;;;5062871;28;21048;-86
2023/12/28 07:14:11;;;;;;;8.87;3.00;;;;;3.60;97120.00;;;;5064452;28;20442;-84
2023/12/28 07:17:01;;;;;;;16.37;5.40;;;;;3.80;97140.00;;;;5063705;28;20486;-85
2023/12/28 07:19:50;;;;;;;21.37;6.97;;;;;3.10;97109.00;;;;5061101;28;20481;-85
2023/12/28 07:22:40;;;;;;;11.17;3.90;;;;;3.00;97119.00;;;;5063374;28;20438;-86
2023/12/28 07:25:29;;;;;;;10.57;3.67;;;;;3.20;97110.00;;;;5058391;28;20446;-85
2023/12/28 07:28:18;;;;;;;15.70;5.10;;;;;3.40;97123.00;;;;5061250;28;20449;-85
2023/12/28 07:31:09;;;;;;;11.27;3.60;;;;;2.70;97116.00;;;;5063162;28;20470;-85
2023/12/28 07:33:58;;;;;;;14.87;4.70;;;;;2.40;97117.00;;;;5057346;28;20439;-85
2023/12/28 07:36:47;;;;;;;14.73;4.63;;;;;2.90;97128.00;;;;5060473;28;20458;-84
2023/12/28 07:39:36;;;;;;;6.60;2.30;;;;;2.70;97115.00;;;;5061858;28;20444;-86
2023/12/28 07:42:25;;;;;;;10.70;3.50;;;;;2.30;97116.00;;;;5060531;28;20477;-83
2023/12/28 07:45:15;;;;;;;10.43;3.47;;;;;2.30;97109.00;;;;5063138;28;20450;-84
2023/12/28 07:48:06;;;;;;;10.80;3.53;;;;;2.80;97113.00;;;;5066701;28;20483;-83
2023/12/28 07:50:56;;;;;;;12.70;4.20;;;;;2.50;97105.00;;;;5068745;28;20465;-86
2023/12/28 07:53:45;;;;;;;10.43;3.43;;;;;2.90;97113.00;;;;5063475;28;20447;-85
2023/12/28 07:56:34;;;;;;;11.70;3.77;;;;;2.80;97112.00;;;;5064302;28;20497;-85
2023/12/28 07:59:23;;;;;;;13.47;4.33;;;;;3.10;97107.00;;;;5061550;28;20450;-84
2023/12/28 08:02:12;;;;;;;13.93;4.50;;;;;3.00;97125.00;;;;5062759;28;20470;-85
2023/12/28 08:05:03;;;;;;;16.13;5.37;;;;;2.80;97105.00;;;;5063820;28;20442;-85
2023/12/28 08:07:53;;;;;;;15.43;4.87;;;;;3.10;97114.00;;;;5065611;28;20451;-82
2023/12/28 08:10:42;;;;;;;9.20;3.23;;;;;3.70;97122.00;;;;5069522;28;20449;-84
2023/12/28 08:13:31;;;;;;;13.47;4.23;;;;;3.10;97108.00;;;;5063512;28;20475;-84
2023/12/28 08:16:20;;;;;;;11.20;3.90;;;;;3.40;97117.00;;;;5069411;28;20458;-86
2023/12/28 08:19:09;;;;;;;12.30;3.97;;;;;3.80;97127.00;;;;5063418;28;20512;-85
2023/12/28 08:22:00;;;;;;;15.63;5.00;;;;;4.50;97126.00;;;;5071930;28;20477;-86
2023/12/28 08:24:49;;;;;;;19.03;6.03;;;;;4.80;97133.00;;;;5071080;28;20780;-83
2023/12/28 08:27:39;;;;;;;17.17;5.50;;;;;5.70;97138.00;;;;5071166;28;20473;-85
2023/12/28 08:30:28;;;;;;;11.53;3.73;;;;;6.20;97141.00;;;;5073865;28;20446;-85
2023/12/28 08:33:17;;;;;;;13.70;4.33;;;;;6.40;97147.00;;;;5072685;28;20227;-83
2023/12/28 08:36:07;;;;;;;8.10;2.67;;;;;6.70;97151.00;;;;5071727;28;20231;-86
2023/12/28 08:38:58;;;;;;;19.23;5.90;;;;;4.60;97132.00;;;;5067136;28;20270;-84
2023/12/28 08:41:47;;;;;;;15.90;4.83;;;;;4.00;97129.00;;;;5071253;28;20228;-84
2023/12/28 08:44:36;;;;;;;10.07;3.40;;;;;3.60;97112.00;;;;5080317;28;20214;-83
2023/12/28 08:47:25;;;;;;;25.07;7.53;;;;;3.60;97126.00;;;;5076818;28;20224;-86
2023/12/28 08:50:15;;;;;;;12.10;3.83;;;;;4.60;97136.00;;;;5063620;28;20638;-86
2023/12/28 08:53:04;;;;;;;13.83;4.27;;;;;4.80;97137.00;;;;5063227;28;20202;-85
2023/12/28 08:55:55;;;;;;;21.73;6.57;;;;;3.90;97114.00;;;;5062883;28;20627;-87
2023/12/28 08:58:44;;;;;;;10.20;3.23;;;;;4.10;97118.00;;;;5060296;28;20211;-86
2023/12/28 09:01:33;;;;;;;21.63;6.50;;;;;4.60;97122.00;;;;5059879;28;20235;-85
2023/12/28 09:04:23;;;;;;;8.37;2.70;;;;;4.40;97111.00;;;;5063369;28;20243;-85
2023/12/28 09:07:13;;;;;;;14.70;4.70;;;;;4.40;97111.00;;;;5063594;28;20227;-86
2023/12/28 09:10:03;;;;;;;16.40;5.30;;;;;4.50;97114.00;;;;5062366;28;20219;-85
2023/12/28 09:12:54;;;;;;;17.80;5.47;;;;;3.80;97110.00;;;;5063870;28;20223;-83
2023/12/28 09:15:43;;;;;;;7.27;2.47;;;;;4.50;97122.00;;;;5061126;28;20214;-85
2023/12/28 09:18:32;;;;;;;9.27;3.07;;;;;4.80;97139.00;;;;5055671;28;20196;-84
2023/12/28 09:21:21;;;;;;;11.97;3.87;;;;;5.20;97139.00;;;;5067853;28;20212;-85
2023/12/28 09:24:11;;;;;;;16.90;5.43;;;;;5.10;97134.00;;;;5061570;28;20207;-85
2023/12/28 09:27:00;;;;;;;26.10;8.23;;;;;5.40;97147.00;;;;5063815;28;20230;-84
2023/12/28 09:29:51;;;;;;;17.77;5.63;;;;;5.40;97143.00;;;;5067599;28;20195;-83
2023/12/28 09:32:40;;;;;;;13.47;4.30;;;;;5.70;97147.00;;;;5062438;28;20205;-84
2023/12/28 09:35:30;;;;;;;10.43;3.47;;;;;5.70;97149.00;;;;5070254;28;20199;-85
2023/12/28 09:38:19;;;;;;;10.07;3.37;;;;;5.50;97136.00;;;;5063837;28;20199;-86
2023/12/28 09:41:14;;;;;;;11.83;3.87;;;;;5.70;97116.00;;;;5077781;28;20204;-85
2023/12/28 09:44:08;;;;;;;19.23;6.30;;;;;6.40;97119.00;;;;5067413;28;20212;-82
2023/12/28 09:46:59;;;;;;;15.40;5.13;;;;;6.40;97128.00;;;;5067636;28;20243;-86
2023/12/28 09:49:49;;;;;;;16.43;5.23;;;;;6.20;97131.00;;;;5069227;28;20215;-85
2023/12/28 09:52:38;;;;;;;8.90;3.00;;;;;6.10;97122.00;;;;5062853;28;20200;-85
2023/12/28 09:55:27;;;;;;;8.23;2.87;;;;;6.80;97124.00;;;;5074056;28;20210;-85
2023/12/28 09:58:19;;;;;;;13.70;4.43;;;;;6.80;97131.00;;;;5071850;28;21001;-84
2023/12/28 10:01:09;;;;;;;11.37;3.70;;;;;6.40;97121.00;;;;5067566;28;20235;-84
2023/12/28 10:04:00;;;;;;;11.93;3.93;;;;;6.00;97116.00;;;;5068612;28;20205;-84
2023/12/28 10:06:50;;;;;;;28.83;8.97;;;;;6.70;97114.00;;;;5063304;28;20251;-86
2023/12/28 10:09:40;;;;;;;10.33;3.43;;;;;7.70;97114.00;;;;5072327;28;20243;-85
2023/12/28 10:12:29;;;;;;;14.53;4.67;;;;;8.30;97130.00;;;;5066827;28;20200;-86
2023/12/28 10:15:18;;;;;;;11.73;3.83;;;;;9.00;97114.00;;;;5074209;28;20213;-85
2023/12/28 10:18:08;;;;;;;13.60;4.33;;;;;8.40;97114.00;;;;5068671;28;20211;-86
2023/12/28 10:20:58;;;;;;;15.77;5.17;;;;;8.10;97109.00;;;;5062768;28;20231;-84
2023/12/28 10:23:48;;;;;;;12.07;4.00;;;;;9.50;97114.00;;;;5069688;28;20227;-85
2023/12/28 10:26:37;;;;;;;10.23;3.43;;;;;8.60;97107.00;;;;5065673;28;20225;-84
2023/12/28 10:29:28;;;;;;;24.17;7.60;;;;;8.70;97099.00;;;;5069688;28;20480;-86
2023/12/28 10:32:17;;;;;;;14.83;5.00;;;;;8.30;97089.00;;;;5067660;28;20226;-86
2023/12/28 10:35:07;;;;;;;14.53;5.03;;;;;9.00;97092.00;;;;5075166;28;20219;-86
2023/12/28 10:38:03;;;;;;;22.30;7.10;;;;;9.60;97092.00;;;;5071965;28;20200;-86
2023/12/28 10:40:53;;;;;;;22.43;7.10;;;;;11.30;97098.00;;;;5072340;28;20208;-86
2023/12/28 10:43:47;;;;;;;8.30;2.90;;;;;12.90;97097.00;;;;5071064;28;20262;-84
2023/12/28 10:46:42;;;;;;;9.80;3.33;;;;;13.10;97108.00;;;;5070733;28;20223;-86
2023/12/28 10:49:32;;;;;;;12.23;4.43;;;;;13.00;97112.00;;;;5067313;28;20196;-87
2023/12/28 10:52:23;;;;;;;17.83;5.93;;;;;13.70;97100.00;;;;5068472;28;20285;-85
2023/12/28 10:55:25;;;;;;;13.13;4.77;;;;;14.70;97103.00;;;;5067855;28;20242;-85
2023/12/28 10:58:20;;;;;;;14.20;5.13;;;;;15.00;97106.00;;;;5068857;28;20216;-84
2023/12/28 11:01:11;;;;;;;15.50;5.70;;;;;13.50;97089.00;;;;5066478;28;20212;-87
2023/12/28 11:04:14;;;;;;;13.60;5.27;;;;;14.20;97084.00;;;;5084745;28;20223;-87
2023/12/28 11:07:04;;;;;;;18.67;6.67;;;;;14.40;97091.00;;;;5079599;28;20224;-86
2023/12/28 11:09:54;;;;;;;19.10;6.83;;;;;15.20;97100.00;;;;5072322;28;20208;-86
2023/12/28 11:12:45;;;;;;;8.07;3.47;;;;;15.00;97094.00;;;;5070510;28;20196;-88
2023/12/28 11:15:36;;;;;;;17.03;6.07;;;;;15.40;97096.00;;;;5061869;28;20231;-87
2023/12/28 11:18:27;;;;;;;10.87;4.27;;;;;15.90;97084.00;;;;5064032;28;20785;-87
2023/12/28 11:21:17;;;;;;;14.57;5.70;;;;;15.80;97076.00;;;;5071407;28;20200;-88
2023/12/28 11:24:07;;;;;;;15.17;5.80;;;;;16.80;97081.00;;;;5061886;28;20239;-87
2023/12/28 11:26:57;;;;;;;30.87;10.90;;;;;15.60;97073.00;;;;5057178;28;20232;-87
2023/12/28 11:29:51;;;;;;;11.73;4.83;;;;;15.00;97072.00;;;;5063845;28;20192;-87
2023/12/28 11:32:43;;;;;;;8.10;3.30;;;;;14.90;97076.00;;;;5065121;28;20198;-86
2023/12/28 11:35:37;;;;;;;11.40;4.10;;;;;14.80;97078.00;;;;5069439;28;20215;-87
2023/12/28 11:38:27;;;;;;;7.50;3.20;;;;;15.00;97086.00;;;;5069038;28;20208;-87
2023/12/28 11:41:18;;;;;;;12.40;4.53;;;;;15.30;97080.00;;;;5073771;28;20196;-88
2023/12/28 11:44:08;;;;;;;12.00;4.27;;;;;16.10;97079.00;;;;5068384;28;20253;-87
2023/12/28 11:46:59;;;;;;;15.50;5.67;;;;;15.40;97084.00;;;;5067305;28;20211;-88
2023/12/28 11:49:51;;;;;;;9.90;3.83;;;;;15.70;97082.00;;;;5075587;28;20204;-88
2023/12/28 11:52:40;;;;;;;12.93;5.63;;;;;16.70;97075.00;;;;5077608;28;20207;-88
2023/12/28 11:55:30;;;;;;;12.37;6.37;;;;;16.30;97072.00;;;;5081371;28;20223;-88
2023/12/28 11:58:20;;;;;;;18.57;11.80;;;;;17.10;97067.00;;;;5079978;28;20212;-86
2023/12/28 12:01:09;;;;;;;29.20;26.87;;;;;17.20;97067.00;;;;5071705;28;20203;-87
2023/12/28 12:03:59;;;;;;;64.90;59.73;;;;;17.00;97062.00;;;;5075570;28;20231;-88
2023/12/28 12:06:50;;;;;;;82.83;77.70;;;;;17.90;97075.00;;;;5075289;28;20922;-88
2023/12/28 12:09:39;;;;;;;138.37;130.30;;;;;18.10;97089.00;;;;5075235;28;20682;-88
2023/12/28 12:12:29;;;;;;;172.07;160.90;;;;;18.50;97083.00;;;;5072186;28;20204;-87
2023/12/28 12:15:19;;;;;;;226.63;210.43;;;;;18.10;97079.00;;;;5078900;28;20200;-87
2023/12/28 12:18:08;;;;;;;234.80;218.80;;;;;17.70;97071.00;;;;5077696;28;20219;-88
2023/12/28 12:20:59;;;;;;;246.07;227.10;;;;;17.50;97075.00;;;;5071261;28;20204;-87
2023/12/28 12:23:50;;;;;;;254.33;236.57;;;;;18.50;97079.00;;;;5072268;28;20224;-88
2023/12/28 12:26:39;;;;;;;246.33;230.70;;;;;19.00;97082.00;;;;5076642;28;20224;-88
2023/12/28 12:29:30;;;;;;;234.47;220.60;;;;;19.20;97087.00;;;;5089943;28;20230;-87
2023/12/28 12:32:19;;;;;;;226.60;214.33;;;;;19.00;97084.00;;;;5083742;28;20230;-87
2023/12/28 12:35:09;;;;;;;150.80;142.33;;;;;19.20;97080.00;;;;5082012;28;20192;-85
2023/12/28 12:37:59;;;;;;;137.33;129.97;;;;;19.30;97085.00;;;;5082463;28;20196;-86
2023/12/28 12:40:51;;;;;;;130.00;123.87;;;;;20.00;97090.00;;;;5083841;28;20200;-87
2023/12/28 12:43:41;;;;;;;139.20;132.37;;;;;20.30;97092.00;;;;5083305;28;20210;-85
2023/12/28 12:46:32;;;;;;;146.53;139.87;;;;;20.20;97090.00;;;;5086465;28;20227;-87
2023/12/28 12:49:23;;;;;;;150.33;143.73;;;;;19.80;97085.00;;;;5089550;28;20681;-87
2023/12/28 12:52:16;;;;;;;130.10;124.57;;;;;19.50;97089.00;;;;5098771;28;20212;-88
2023/12/28 12:55:08;;;;;;;152.87;144.43;;;;;18.30;97070.00;;;;5083169;28;20205;-88
2023/12/28 12:57:58;;;;;;;105.40;100.27;;;;;18.90;97078.00;;;;5092863;28;20287;-87
2023/12/28 13:00:47;;;;;;;110.10;104.87;;;;;20.20;97085.00;;;;5084437;28;20192;-87
2023/12/28 13:03:38;;;;;;;147.67;140.97;;;;;20.50;97079.00;;;;5085715;28;20243;-86
2023/12/28 13:06:27;;;;;;;158.43;151.10;;;;;19.10;97060.00;;;;5083862;28;20231;-87
2023/12/28 13:09:16;;;;;;;191.10;182.13;;;;;19.50;97055.00;;;;5087325;28;20205;-89
2023/12/28 13:12:08;;;;;;;170.23;161.20;;;;;18.80;97054.00;;;;5082867;28;20212;-87
2023/12/28 13:14:58;;;;;;;191.57;182.23;;;;;19.90;97063.00;;;;5082606;28;20192;-86
2023/12/28 13:17:47;;;;;;;234.67;223.37;;;;;21.10;97064.00;;;;5083045;28;20212;-87
2023/12/28 13:20:36;;;;;;;319.40;301.17;;;;;20.30;97066.00;;;;5086137;28;20211;-87
2023/12/28 13:23:26;;;;;;;335.43;316.53;;;;;19.70;97067.00;;;;5083053;28;20232;-87
2023/12/28 13:26:15;;;;;;;314.13;297.77;;;;;17.70;97062.00;;;;5084071;28;20227;-88
2023/12/28 13:29:05;;;;;;;274.17;260.10;;;;;17.50;97054.00;;;;5078816;28;20208;-88
2023/12/28 13:31:55;;;;;;;250.83;238.37;;;;;16.00;97045.00;;;;5075634;28;20208;-87
2023/12/28 13:34:44;;;;;;;291.87;275.60;;;;;15.10;97052.00;;;;5071444;28;20193;-89
2023/12/28 13:37:33;;;;;;;274.87;258.60;;;;;15.50;97053.00;;;;5067363;28;20216;-88
2023/12/28 13:40:22;;;;;;;256.07;241.67;;;;;16.70;97064.00;;;;5072827;28;20210;-89
2023/12/28 13:43:12;;;;;;;222.27;210.43;;;;;17.80;97063.00;;;;5079512;28;20200;-88
2023/12/28 13:46:03;;;;;;;252.23;236.43;;;;;16.20;97058.00;;;;5074211;28;20220;-88
2023/12/28 13:48:53;;;;;;;241.77;226.80;;;;;15.70;97048.00;;;;5084303;28;20663;-88
2023/12/28 13:51:42;;;;;;;249.60;234.70;;;;;15.50;97038.00;;;;5081583;28;20205;-88
2023/12/28 13:54:31;;;;;;;244.83;230.53;;;;;15.40;97053.00;;;;5085950;28;20196;-88
2023/12/28 13:57:20;;;;;;;234.57;220.87;;;;;14.40;97067.00;;;;5077896;28;20243;-88
2023/12/28 14:00:10;;;;;;;230.93;216.47;;;;;12.60;97064.00;;;;5071457;28;20208;-88
2023/12/28 14:03:01;;;;;;;289.17;261.90;;;;;12.80;97090.00;;;;5071297;28;20204;-88
2023/12/28 14:05:50;;;;;;;250.83;230.73;;;;;12.50;97091.00;;;;5078715;28;20244;-87